Time;durP1;ratioP1;P1;durP2;ratioP2;P2;SDS_P1;SDS_P2;PMS_P1;PMS_P2;Temp;Humidity;BMP_temperature;BMP_pressure;BME280_temperature;BME280_humidity;BME280_pressure;Samples;Min_cycle;Max_cycle;Signal;HPM_P1;HPM_P2
2021/12/29 00:00:19;;;;;;;;;;;9.70;82.70;;;;;;5068702;27;83899;-55
2021/12/29 00:02:44;;;;;;;;;;;9.70;82.70;;;;;;5068697;27;82359;-57
2021/12/29 00:05:10;;;;;;;;;;;9.70;82.60;;;;;;5068834;27;81973;-51
2021/12/29 00:07:36;;;;;;;;;;;9.70;82.60;;;;;;5071592;27;84019;-54
2021/12/29 00:10:03;;;;;;;;;;;9.70;82.60;;;;;;5068641;27;82061;-59
2021/12/29 00:12:29;;;;;;;;;;;9.70;82.70;;;;;;5068550;27;83935;-57
2021/12/29 00:14:55;;;;;;;;;;;9.60;82.60;;;;;;5067622;27;85289;-58
2021/12/29 00:17:20;;;;;;;;;;;9.60;82.60;;;;;;5068326;27;81951;-56
2021/12/29 00:19:46;;;;;;;;;;;9.60;82.50;;;;;;5068848;27;82457;-54
2021/12/29 00:22:12;;;;;;;;;;;9.60;82.70;;;;;;5068321;27;84455;-52
2021/12/29 00:24:37;;;;;;;;;;;9.60;82.70;;;;;;5068560;27;82159;-56
2021/12/29 00:27:05;;;;;;;;;;;9.50;82.60;;;;;;5068063;27;83091;-57
2021/12/29 00:29:31;;;;;;;;;;;9.50;82.70;;;;;;5070841;27;84236;-58
2021/12/29 00:31:56;;;;;;;;;;;9.50;82.60;;;;;;5050646;27;83201;-57
2021/12/29 00:34:22;;;;;;;;;;;9.50;82.50;;;;;;5068203;27;84702;-56
2021/12/29 00:36:47;;;;;;;;;;;9.50;82.50;;;;;;5068140;27;81977;-56
2021/12/29 00:39:13;;;;;;;;;;;9.50;82.60;;;;;;5067619;27;83849;-54
2021/12/29 00:41:39;;;;;;;;;;;9.50;82.60;;;;;;5066684;27;84565;-56
2021/12/29 00:44:06;;;;;;;;;;;9.50;82.60;;;;;;5067692;27;82124;-56
2021/12/29 00:46:32;;;;;;;;;;;9.40;82.60;;;;;;5068115;27;83775;-54
2021/12/29 00:48:58;;;;;;;;;;;9.40;82.60;;;;;;5067718;27;84693;-55
2021/12/29 00:51:24;;;;;;;;;;;9.40;82.40;;;;;;5070576;27;82117;-56
2021/12/29 00:53:49;;;;;;;;;;;9.40;82.50;;;;;;5067819;27;84284;-53
2021/12/29 00:56:15;;;;;;;;;;;9.40;82.50;;;;;;5068303;27;81408;-57
2021/12/29 00:58:40;;;;;;;;;;;9.40;82.50;;;;;;5068017;27;83245;-56
2021/12/29 01:01:06;;;;;;;;;;;9.40;82.50;;;;;;5067977;27;83221;-56
2021/12/29 01:03:33;;;;;;;;;;;9.40;82.60;;;;;;5067020;27;82952;-56
2021/12/29 01:05:58;;;;;;;;;;;9.30;82.60;;;;;;5067605;27;84918;-56
2021/12/29 01:08:24;;;;;;;;;;;9.30;82.60;;;;;;5067570;27;84973;-56
2021/12/29 01:10:50;;;;;;;;;;;9.30;82.60;;;;;;5067425;27;82682;-53
2021/12/29 01:13:19;;;;;;;;;;;9.30;82.60;;;;;;5070141;27;83919;-54
2021/12/29 01:18:29;;;;;;;;;;;9.20;82.50;;;;;;5067990;27;81803;-54
2021/12/29 01:20:55;;;;;;;;;;;9.20;82.60;;;;;;5067894;27;82660;-56
2021/12/29 01:23:21;;;;;;;;;;;9.20;82.60;;;;;;5067407;27;81958;-59
2021/12/29 01:25:47;;;;;;;;;;;9.20;82.60;;;;;;5067821;27;82016;-54
2021/12/29 01:28:12;;;;;;;;;;;9.20;82.80;;;;;;5066793;27;83822;-58
2021/12/29 01:30:38;;;;;;;;;;;9.10;82.70;;;;;;5067412;27;82075;-59
2021/12/29 01:33:06;;;;;;;;;;;9.10;82.80;;;;;;5070278;27;82320;-56
2021/12/29 01:35:38;;;;;;;;;;;9.10;82.70;;;;;;5067407;27;82035;-58
2021/12/29 01:38:05;;;;;;;;;;;9.10;82.80;;;;;;5067153;27;84233;-54
2021/12/29 01:40:31;;;;;;;;;;;9.10;82.90;;;;;;5067270;27;84347;-58
2021/12/29 01:42:57;;;;;;;;;;;9.10;82.80;;;;;;5067033;27;82092;-57
2021/12/29 01:45:23;;;;;;;;;;;9.10;82.80;;;;;;5067548;27;83613;-56
2021/12/29 01:47:48;;;;;;;;;;;9.10;82.90;;;;;;5066940;27;84493;-55
2021/12/29 01:50:14;;;;;;;;;;;9.00;82.90;;;;;;5066826;27;82115;-54
2021/12/29 01:52:40;;;;;;;;;;;9.00;82.90;;;;;;5066154;27;84283;-53
2021/12/29 01:55:07;;;;;;;;;;;9.00;82.90;;;;;;5069461;27;84336;-55
2021/12/29 01:57:33;;;;;;;;;;;9.00;82.80;;;;;;5067061;27;83729;-54
2021/12/29 01:59:59;;;;;;;;;;;9.00;82.90;;;;;;5066842;27;83819;-54
2021/12/29 02:02:25;;;;;;;;;;;8.90;82.80;;;;;;5067242;27;82068;-56
2021/12/29 02:04:50;;;;;;;;;;;9.00;82.90;;;;;;5067088;27;83051;-55
2021/12/29 02:07:16;;;;;;;;;;;8.90;82.80;;;;;;5067022;27;82241;-58
2021/12/29 02:09:41;;;;;;;;;;;8.90;82.80;;;;;;5067610;27;81393;-58
2021/12/29 02:12:07;;;;;;;;;;;8.90;82.80;;;;;;5067153;27;81906;-57
2021/12/29 02:14:33;;;;;;;;;;;8.90;82.70;;;;;;5066839;27;82952;-57
2021/12/29 02:16:59;;;;;;;;;;;8.90;82.70;;;;;;5069113;27;83175;-60
2021/12/29 02:19:26;;;;;;;;;;;8.90;82.80;;;;;;5066657;27;83440;-57
2021/12/29 02:22:07;;;;;;;;;;;8.90;82.80;;;;;;5066487;27;81927;-56
2021/12/29 02:24:41;;;;;;;;;;;8.90;82.90;;;;;;5067105;27;81979;-57
2021/12/29 02:27:07;;;;;;;;;;;8.80;82.80;;;;;;5066424;27;84694;-56
2021/12/29 02:29:34;;;;;;;;;;;8.80;82.80;;;;;;5066513;27;82101;-57
2021/12/29 02:32:00;;;;;;;;;;;8.80;82.80;;;;;;5066679;27;83964;-60
2021/12/29 02:34:26;;;;;;;;;;;8.80;82.80;;;;;;5066793;27;83586;-55
2021/12/29 02:36:51;;;;;;;;;;;8.80;82.80;;;;;;5066388;27;81888;-58
2021/12/29 02:39:19;;;;;;;;;;;8.80;82.80;;;;;;5069349;27;82491;-59
2021/12/29 02:41:46;;;;;;;;;;;8.80;82.80;;;;;;5065819;27;82787;-56
2021/12/29 02:44:18;;;;;;;;;;;8.80;82.80;;;;;;5066285;27;85023;-57
2021/12/29 02:46:43;;;;;;;;;;;8.70;82.90;;;;;;5066525;27;81970;-59
2021/12/29 02:49:09;;;;;;;;;;;8.70;82.90;;;;;;5066556;27;82022;-53
2021/12/29 02:51:35;;;;;;;;;;;8.70;82.80;;;;;;5065964;27;82994;-57
2021/12/29 02:54:00;;;;;;;;;;;8.70;82.80;;;;;;5066209;27;84640;-57
2021/12/29 02:56:26;;;;;;;;;;;8.70;82.80;;;;;;5066438;27;82080;-58
2021/12/29 02:58:53;;;;;;;;;;;8.70;82.80;;;;;;5066721;27;84071;-55
2021/12/29 03:01:19;;;;;;;;;;;8.60;82.90;;;;;;5068785;27;84747;-59
2021/12/29 03:03:45;;;;;;;;;;;8.60;82.90;;;;;;5066094;27;83842;-55
2021/12/29 03:06:10;;;;;;;;;;;8.60;82.90;;;;;;5067685;27;84041;-54
2021/12/29 03:08:36;;;;;;;;;;;8.60;82.90;;;;;;5069848;27;82186;-59
2021/12/29 03:11:02;;;;;;;;;;;8.70;82.80;;;;;;5069721;27;83697;-58
2021/12/29 03:13:29;;;;;;;;;;;8.60;82.90;;;;;;5069300;27;84865;-59
2021/12/29 03:15:55;;;;;;;;;;;8.60;82.90;;;;;;5069616;27;82082;-57
2021/12/29 03:18:21;;;;;;;;;;;8.60;82.90;;;;;;5069628;27;82529;-57
2021/12/29 03:20:47;;;;;;;;;;;8.60;82.80;;;;;;5069313;27;84765;-56
2021/12/29 03:23:13;;;;;;;;;;;8.60;82.80;;;;;;5072800;27;81119;-57
2021/12/29 03:25:38;;;;;;;;;;;8.50;82.80;;;;;;5069514;27;82780;-57
2021/12/29 03:28:04;;;;;;;;;;;8.60;82.80;;;;;;5069314;27;82136;-54
2021/12/29 03:30:32;;;;;;;;;;;8.50;82.90;;;;;;5068670;27;84119;-55
2021/12/29 03:33:07;;;;;;;;;;;8.50;82.90;;;;;;5068803;27;84207;-58
2021/12/29 03:35:35;;;;;;;;;;;8.50;82.90;;;;;;5069513;27;81845;-58
2021/12/29 03:38:01;;;;;;;;;;;8.50;82.90;;;;;;5069320;27;83944;-58
2021/12/29 03:40:27;;;;;;;;;;;8.40;82.90;;;;;;5068970;27;83634;-59
2021/12/29 03:42:53;;;;;;;;;;;8.50;82.90;;;;;;5071772;27;82143;-56
2021/12/29 03:45:19;;;;;;;;;;;8.50;82.90;;;;;;5069049;27;83132;-55
2021/12/29 03:47:44;;;;;;;;;;;8.40;82.90;;;;;;5069725;27;81165;-59
2021/12/29 03:50:10;;;;;;;;;;;8.40;82.90;;;;;;5068860;27;82912;-53
2021/12/29 03:52:35;;;;;;;;;;;8.40;83.00;;;;;;5068452;27;86390;-54
2021/12/29 03:55:01;;;;;;;;;;;8.40;83.00;;;;;;5068416;27;82940;-57
2021/12/29 03:57:26;;;;;;;;;;;8.40;83.10;;;;;;5068980;27;83521;-56
2021/12/29 03:59:52;;;;;;;;;;;8.40;83.10;;;;;;5068625;27;84900;-56
2021/12/29 04:02:17;;;;;;;;;;;8.40;82.90;;;;;;5068325;27;82184;-54
2021/12/29 04:04:43;;;;;;;;;;;8.40;83.00;;;;;;5071646;27;82602;-53
2021/12/29 04:07:08;;;;;;;;;;;8.30;83.00;;;;;;5068859;27;82117;-59
2021/12/29 04:09:34;;;;;;;;;;;8.30;83.10;;;;;;5069047;27;82638;-55
2021/12/29 04:12:00;;;;;;;;;;;8.30;83.00;;;;;;5069005;27;84207;-57
2021/12/29 04:14:28;;;;;;;;;;;8.30;82.90;;;;;;5068648;27;82146;-56
2021/12/29 04:16:56;;;;;;;;;;;8.30;83.00;;;;;;5068184;27;84161;-60
2021/12/29 04:19:40;;;;;;;;;;;8.30;83.00;;;;;;5067724;27;83930;-58
2021/12/29 04:22:07;;;;;;;;;;;8.30;83.00;;;;;;5068595;27;81929;-58
2021/12/29 04:24:33;;;;;;;;;;;8.20;83.20;;;;;;5068298;27;83765;-56
2021/12/29 04:27:00;;;;;;;;;;;8.20;83.30;;;;;;5071213;27;82092;-59
2021/12/29 04:29:25;;;;;;;;;;;8.20;83.20;;;;;;5068129;27;82896;-56
2021/12/29 04:31:51;;;;;;;;;;;8.20;83.20;;;;;;5068113;27;84746;-56
2021/12/29 04:34:16;;;;;;;;;;;8.20;83.10;;;;;;5068645;27;82001;-57
2021/12/29 04:36:42;;;;;;;;;;;8.20;83.10;;;;;;5069081;27;82406;-59
2021/12/29 04:39:07;;;;;;;;;;;8.20;83.20;;;;;;5067977;27;84740;-59
2021/12/29 04:41:33;;;;;;;;;;;8.20;83.20;;;;;;5068284;27;82207;-56
2021/12/29 04:43:59;;;;;;;;;;;8.10;83.20;;;;;;5067187;27;84123;-57
2021/12/29 04:46:36;;;;;;;;;;;8.10;83.20;;;;;;5068082;27;83003;-55
2021/12/29 04:49:02;;;;;;;;;;;8.20;83.20;;;;;;5071030;27;81908;-57
2021/12/29 04:51:35;;;;;;;;;;;8.10;83.00;;;;;;5067160;27;84344;-59
2021/12/29 04:54:01;;;;;;;;;;;8.20;83.10;;;;;;5068003;27;81912;-56
2021/12/29 04:56:26;;;;;;;;;;;8.10;83.20;;;;;;5067835;27;83882;-53
2021/12/29 04:58:52;;;;;;;;;;;8.10;83.10;;;;;;5067892;27;84882;-57
2021/12/29 05:01:17;;;;;;;;;;;8.10;83.20;;;;;;5068322;27;81384;-55
2021/12/29 05:03:44;;;;;;;;;;;8.10;83.40;;;;;;5067739;27;83241;-57
2021/12/29 05:08:36;;;;;;;;;;;8.00;83.30;;;;;;5067483;27;83053;-58
2021/12/29 05:11:03;;;;;;;;;;;8.00;83.20;;;;;;5070486;27;83435;-56
2021/12/29 05:13:30;;;;;;;;;;;8.00;83.30;;;;;;5067982;27;82077;-55
2021/12/29 05:15:56;;;;;;;;;;;8.00;83.30;;;;;;5067868;27;82598;-57
2021/12/29 05:18:22;;;;;;;;;;;8.00;83.20;;;;;;5067443;27;84532;-51
2021/12/29 05:20:48;;;;;;;;;;;8.00;83.30;;;;;;5067645;27;82075;-54
2021/12/29 05:23:14;;;;;;;;;;;8.00;83.30;;;;;;5067748;27;82312;-57
2021/12/29 05:25:39;;;;;;;;;;;8.00;83.30;;;;;;5068024;27;82418;-56
2021/12/29 05:28:05;;;;;;;;;;;8.00;83.20;;;;;;5066737;27;82106;-59
2021/12/29 05:30:30;;;;;;;;;;;8.00;83.20;;;;;;5070215;27;82349;-54
2021/12/29 05:32:56;;;;;;;;;;;8.00;83.20;;;;;;5066668;27;83232;-54
2021/12/29 05:35:22;;;;;;;;;;;7.90;83.20;;;;;;5067357;27;84758;-54
2021/12/29 05:37:47;;;;;;;;;;;8.00;83.30;;;;;;5067364;27;82138;-56
2021/12/29 05:40:15;;;;;;;;;;;7.90;83.30;;;;;;5067286;27;81842;-54
2021/12/29 05:42:41;;;;;;;;;;;7.90;83.20;;;;;;5066886;27;83784;-57
2021/12/29 05:45:08;;;;;;;;;;;7.90;83.20;;;;;;5067424;27;82100;-57
2021/12/29 05:47:33;;;;;;;;;;;7.90;83.10;;;;;;5067220;27;82161;-56
2021/12/29 05:49:59;;;;;;;;;;;8.00;83.10;;;;;;5067460;27;84487;-59
2021/12/29 05:52:25;;;;;;;;;;;7.90;83.10;;;;;;5069369;27;84955;-54
2021/12/29 05:54:50;;;;;;;;;;;7.90;83.30;;;;;;5067345;27;82360;-56
2021/12/29 05:57:16;;;;;;;;;;;7.90;83.30;;;;;;5066108;27;83521;-55
2021/12/29 05:59:41;;;;;;;;;;;7.90;83.10;;;;;;5066844;27;82268;-56
2021/12/29 06:02:07;;;;;;;;;;;7.80;83.20;;;;;;5067317;27;82286;-56
2021/12/29 06:04:32;;;;;;;;;;;7.90;83.30;;;;;;5066748;27;84455;-54
2021/12/29 06:06:58;;;;;;;;;;;7.90;83.20;;;;;;5066940;27;82182;-56
2021/12/29 06:09:24;;;;;;;;;;;7.90;83.20;;;;;;5066904;27;83826;-57
2021/12/29 06:11:49;;;;;;;;;;;7.80;83.30;;;;;;5066555;27;84635;-57
2021/12/29 06:14:15;;;;;;;;;;;7.80;83.20;;;;;;5070485;27;81343;-54
2021/12/29 06:16:40;;;;;;;;;;;7.80;83.20;;;;;;5066713;27;83655;-56
2021/12/29 06:19:06;;;;;;;;;;;7.80;83.30;;;;;;5066776;27;82097;-55
2021/12/29 06:21:31;;;;;;;;;;;7.80;83.30;;;;;;5066194;27;83796;-58
2021/12/29 06:23:57;;;;;;;;;;;7.80;83.30;;;;;;5066840;27;82994;-57
2021/12/29 06:26:22;;;;;;;;;;;7.80;83.20;;;;;;5066641;27;82045;-56
2021/12/29 06:28:49;;;;;;;;;;;7.80;83.30;;;;;;5066699;27;84243;-57
2021/12/29 06:31:14;;;;;;;;;;;7.70;83.50;;;;;;5066430;27;84217;-58
2021/12/29 06:33:40;;;;;;;;;;;7.70;83.40;;;;;;5066642;27;81957;-55
2021/12/29 06:36:06;;;;;;;;;;;7.70;83.40;;;;;;5069148;27;83837;-59
2021/12/29 06:38:34;;;;;;;;;;;7.70;83.40;;;;;;5067393;27;81314;-59
2021/12/29 06:40:59;;;;;;;;;;;7.70;83.40;;;;;;5068193;27;82537;-56
2021/12/29 06:43:25;;;;;;;;;;;7.70;83.40;;;;;;5070002;27;83266;-54
2021/12/29 06:45:51;;;;;;;;;;;7.70;83.30;;;;;;5069495;27;83026;-56
2021/12/29 06:48:16;;;;;;;;;;;7.70;83.30;;;;;;5070011;27;84757;-56
2021/12/29 06:50:42;;;;;;;;;;;7.70;83.30;;;;;;5069251;27;83661;-57
2021/12/29 06:53:08;;;;;;;;;;;7.70;83.30;;;;;;5070058;27;81851;-54
2021/12/29 06:55:33;;;;;;;;;;;7.70;83.40;;;;;;5069788;27;84441;-52
2021/12/29 06:57:59;;;;;;;;;;;7.70;83.40;;;;;;5072364;27;84764;-55
2021/12/29 07:00:24;;;;;;;;;;;7.70;83.40;;;;;;5070087;27;82491;-56
2021/12/29 07:02:50;;;;;;;;;;;7.70;83.40;;;;;;5070226;27;83273;-59
2021/12/29 07:05:15;;;;;;;;;;;7.70;83.50;;;;;;5069836;27;82110;-57
2021/12/29 07:07:42;;;;;;;;;;;7.60;84.00;;;;;;5069721;27;84086;-56
2021/12/29 07:10:08;;;;;;;;;;;7.60;83.60;;;;;;5068686;27;85912;-53
2021/12/29 07:12:33;;;;;;;;;;;7.60;83.40;;;;;;5069539;27;82021;-56
2021/12/29 07:14:59;;;;;;;;;;;7.60;83.50;;;;;;5069484;27;84131;-58
2021/12/29 07:17:24;;;;;;;;;;;7.60;83.60;;;;;;5069333;27;84393;-58
2021/12/29 07:19:50;;;;;;;;;;;7.60;83.60;;;;;;5072348;27;82115;-56
2021/12/29 07:22:16;;;;;;;;;;;7.60;83.60;;;;;;5069202;27;84659;-53
2021/12/29 07:24:41;;;;;;;;;;;7.50;83.70;;;;;;5069479;27;81915;-55
2021/12/29 07:27:07;;;;;;;;;;;7.50;83.60;;;;;;5069608;27;84128;-56
2021/12/29 07:29:33;;;;;;;;;;;7.60;83.60;;;;;;5069358;27;82097;-55
2021/12/29 07:31:58;;;;;;;;;;;7.60;83.50;;;;;;5069390;27;82113;-52
2021/12/29 07:34:24;;;;;;;;;;;7.60;83.30;;;;;;5068802;27;82965;-59
2021/12/29 07:36:50;;;;;;;;;;;7.60;83.90;;;;;;5068951;27;84917;-56
2021/12/29 07:39:16;;;;;;;;;;;7.60;83.40;;;;;;5072221;27;81976;-55
2021/12/29 07:41:42;;;;;;;;;;;7.50;83.50;;;;;;5068811;27;84584;-55
2021/12/29 07:44:08;;;;;;;;;;;7.50;83.70;;;;;;5069193;27;82125;-52
2021/12/29 07:46:34;;;;;;;;;;;7.50;83.60;;;;;;5068925;27;84018;-54
2021/12/29 07:49:02;;;;;;;;;;;7.50;83.80;;;;;;5068863;27;84800;-59
2021/12/29 07:51:28;;;;;;;;;;;7.50;83.70;;;;;;5068232;27;81406;-54
2021/12/29 07:53:54;;;;;;;;;;;7.50;83.70;;;;;;5068961;27;83123;-57
2021/12/29 07:56:19;;;;;;;;;;;7.50;83.60;;;;;;5068555;27;84197;-55
2021/12/29 07:58:45;;;;;;;;;;;7.50;83.70;;;;;;5068262;27;82805;-56
2021/12/29 08:01:10;;;;;;;;;;;7.50;83.70;;;;;;5071367;27;85081;-56
2021/12/29 08:03:38;;;;;;;;;;;7.50;83.70;;;;;;5068951;27;82045;-54
2021/12/29 08:06:04;;;;;;;;;;;7.50;83.70;;;;;;5069024;27;82843;-57
2021/12/29 08:08:29;;;;;;;;;;;7.40;83.80;;;;;;5068979;27;82375;-55
2021/12/29 08:10:55;;;;;;;;;;;7.40;83.80;;;;;;5068358;27;81910;-56
2021/12/29 08:13:21;;;;;;;;;;;7.40;83.80;;;;;;5068997;27;83802;-57
2021/12/29 08:15:46;;;;;;;;;;;7.40;84.00;;;;;;5068939;27;82739;-53
2021/12/29 08:18:12;;;;;;;;;;;7.40;83.80;;;;;;5068925;27;82098;-53
2021/12/29 08:20:37;;;;;;;;;;;7.40;83.70;;;;;;5068664;27;81845;-55
2021/12/29 08:23:04;;;;;;;;;;;7.40;83.90;;;;;;5070235;27;85338;-59
2021/12/29 08:25:30;;;;;;;;;;;7.40;83.90;;;;;;5068625;27;83304;-55
2021/12/29 08:27:56;;;;;;;;;;;7.40;83.90;;;;;;5068196;27;84328;-55
2021/12/29 08:30:22;;;;;;;;;;;7.40;83.90;;;;;;5068619;27;81975;-51
2021/12/29 08:32:47;;;;;;;;;;;7.40;84.40;;;;;;5068349;27;83877;-57
2021/12/29 08:35:13;;;;;;;;;;;7.40;83.90;;;;;;5067978;27;84657;-53
2021/12/29 08:37:39;;;;;;;;;;;7.30;83.90;;;;;;5068198;27;81714;-54
2021/12/29 08:40:07;;;;;;;;;;;7.40;83.80;;;;;;5068832;27;83019;-56
2021/12/29 08:42:33;;;;;;;;;;;7.40;83.90;;;;;;5067761;27;84201;-55
2021/12/29 08:44:58;;;;;;;;;;;7.30;83.90;;;;;;5070791;27;82326;-56
2021/12/29 08:47:24;;;;;;;;;;;7.40;83.70;;;;;;5067237;27;85323;-53
2021/12/29 08:49:49;;;;;;;;;;;7.40;83.60;;;;;;5068167;27;82117;-58
2021/12/29 08:52:15;;;;;;;;;;;7.40;83.60;;;;;;5067875;27;81984;-56
2021/12/29 08:54:40;;;;;;;;;;;7.40;83.70;;;;;;5067957;27;84590;-56
2021/12/29 08:57:06;;;;;;;;;;;7.30;83.80;;;;;;5067955;27;82044;-58
2021/12/29 08:59:32;;;;;;;;;;;7.30;83.80;;;;;;5068196;27;82565;-57
2021/12/29 09:01:57;;;;;;;;;;;7.30;83.70;;;;;;5067742;27;84433;-56
2021/12/29 09:04:23;;;;;;;;;;;7.30;83.80;;;;;;5067312;27;81490;-55
2021/12/29 09:06:48;;;;;;;;;;;7.30;83.70;;;;;;5070307;27;83376;-59
2021/12/29 09:09:14;;;;;;;;;;;7.30;83.80;;;;;;5067829;27;82081;-56
2021/12/29 09:11:40;;;;;;;;;;;7.30;83.80;;;;;;5067465;27;82971;-59
2021/12/29 09:14:06;;;;;;;;;;;7.30;83.80;;;;;;5067736;27;84478;-54
2021/12/29 09:16:31;;;;;;;;;;;7.30;83.90;;;;;;5067706;27;82199;-59
2021/12/29 09:18:57;;;;;;;;;;;7.30;84.00;;;;;;5067847;27;83093;-56
2021/12/29 09:21:23;;;;;;;;;;;7.30;84.10;;;;;;5067282;27;84080;-58
2021/12/29 09:23:48;;;;;;;;;;;7.30;84.00;;;;;;5067466;27;81682;-56
2021/12/29 09:26:15;;;;;;;;;;;7.30;84.00;;;;;;5067746;27;82377;-57
2021/12/29 09:28:41;;;;;;;;;;;7.30;83.80;;;;;;5070728;27;82497;-55
2021/12/29 09:31:07;;;;;;;;;;;7.30;83.70;;;;;;5067481;27;83155;-56
2021/12/29 09:33:33;;;;;;;;;;;7.30;83.90;;;;;;5067106;27;84566;-57
2021/12/29 09:36:02;;;;;;;;;;;7.30;83.90;;;;;;5066522;27;82999;-59
2021/12/29 09:38:29;;;;;;;;;;;7.30;83.90;;;;;;5067370;27;84829;-58
2021/12/29 09:40:54;;;;;;;;;;;7.30;83.90;;;;;;5067011;27;82942;-55
2021/12/29 09:43:20;;;;;;;;;;;7.30;83.70;;;;;;5067546;27;81991;-56
2021/12/29 09:45:47;;;;;;;;;;;7.30;83.70;;;;;;5067219;27;84146;-58
2021/12/29 09:48:13;;;;;;;;;;;7.30;83.70;;;;;;5070097;27;82045;-59
2021/12/29 09:50:39;;;;;;;;;;;7.30;83.70;;;;;;5066544;27;85561;-56
2021/12/29 09:53:06;;;;;;;;;;;7.30;83.60;;;;;;5067685;27;83714;-57
2021/12/29 09:55:31;;;;;;;;;;;7.30;83.70;;;;;;5066880;27;81785;-57
2021/12/29 09:57:58;;;;;;;;;;;7.30;83.60;;;;;;5067155;27;83801;-58
2021/12/29 10:00:27;;;;;;;;;;;7.30;83.90;;;;;;5066550;27;83047;-56
2021/12/29 10:02:53;;;;;;;;;;;7.20;83.80;;;;;;5067069;27;82102;-56
2021/12/29 10:05:19;;;;;;;;;;;7.20;83.90;;;;;;5067291;27;82377;-56
2021/12/29 10:07:44;;;;;;;;;;;7.20;84.30;;;;;;5066707;27;84260;-56
2021/12/29 10:10:20;;;;;;;;;;;7.20;84.10;;;;;;5069662;27;82097;-55
2021/12/29 10:12:46;;;;;;;;;;;7.20;84.10;;;;;;5066644;27;84606;-56
2021/12/29 10:15:11;;;;;;;;;;;7.20;84.20;;;;;;5069022;27;81981;-55
2021/12/29 10:17:37;;;;;;;;;;;7.20;84.00;;;;;;5070878;27;84213;-56
2021/12/29 10:20:08;;;;;;;;;;;7.20;84.20;;;;;;5070517;27;81956;-58
2021/12/29 10:22:34;;;;;;;;;;;7.20;84.10;;;;;;5070344;27;82116;-58
2021/12/29 10:25:24;;;;;;;;;;;7.20;84.10;;;;;;5051497;27;85571;-56
2021/12/29 10:27:50;;;;;;;;;;;7.20;84.00;;;;;;5070324;27;83406;-55
2021/12/29 10:30:17;;;;;;;;;;;7.20;84.00;;;;;;5070133;27;82139;-53
2021/12/29 10:32:43;;;;;;;;;;;7.20;84.10;;;;;;5072812;27;83948;-58
2021/12/29 10:35:08;;;;;;;;;;;7.20;84.00;;;;;;5070215;27;81733;-52
2021/12/29 10:37:34;;;;;;;;;;;7.20;84.00;;;;;;5070109;27;84189;-54
2021/12/29 10:40:00;;;;;;;;;;;7.20;83.90;;;;;;5066383;27;89734;-54
2021/12/29 10:42:25;;;;;;;;;;;7.20;84.00;;;;;;5067249;27;86526;-56
2021/12/29 10:44:52;;;;;;;;;;;7.20;84.30;;;;;;5066834;27;88017;-57
2021/12/29 10:47:19;;;;;;;;;;;7.20;84.40;;;;;;5066173;27;89256;-57
2021/12/29 10:49:53;;;;;;;;;;;7.20;84.00;;;;;;5066078;27;88066;-57
2021/12/29 10:52:28;;;;;;;;;;;7.20;84.20;;;;;;5066426;27;88354;-57
2021/12/29 10:54:54;;;;;;;;;;;7.20;84.20;;;;;;5069225;27;89623;-57
2021/12/29 10:57:19;;;;;;;;;;;7.20;84.10;;;;;;5066543;27;89108;-57
2021/12/29 10:59:45;;;;;;;;;;;7.20;84.10;;;;;;5065965;27;89630;-55
2021/12/29 11:02:11;;;;;;;;;;;7.20;84.10;;;;;;5066442;27;87056;-57
2021/12/29 11:04:37;;;;;;;;;;;7.20;84.20;;;;;;5066373;27;88931;-59
2021/12/29 11:07:03;;;;;;;;;;;7.20;85.10;;;;;;5066578;27;88982;-58
2021/12/29 11:09:34;;;;;;;;;;;7.20;84.60;;;;;;5066274;27;87101;-56
2021/12/29 11:12:00;;;;;;;;;;;7.10;84.70;;;;;;5066259;27;88938;-54
2021/12/29 11:14:30;;;;;;;;;;;7.20;84.50;;;;;;5065157;27;89720;-54
2021/12/29 11:17:02;;;;;;;;;;;7.20;84.30;;;;;;5069061;27;87144;-57
2021/12/29 11:19:28;;;;;;;;;;;7.20;84.40;;;;;;5065898;27;88044;-55
2021/12/29 11:22:03;;;;;;;;;;;7.20;84.40;;;;;;5066359;27;87262;-59
2021/12/29 11:24:29;;;;;;;;;;;7.20;84.40;;;;;;5066257;27;88786;-60
2021/12/29 11:26:58;;;;;;;;;;;7.20;84.60;;;;;;5065156;27;88089;-55
2021/12/29 11:29:23;;;;;;;;;;;7.20;84.40;;;;;;5066034;27;87225;-54
2021/12/29 11:31:49;;;;;;;;;;;7.20;84.30;;;;;;5066036;27;89534;-56
2021/12/29 11:34:24;;;;;;;;;;;7.20;84.40;;;;;;5065646;27;89604;-54
2021/12/29 11:37:01;;;;;;;;;;;7.20;84.40;;;;;;5065900;27;86970;-56
2021/12/29 11:39:27;;;;;;;;;;;7.20;84.60;;;;;;5067896;27;88757;-56
2021/12/29 11:41:52;;;;;;;;;;;7.20;84.30;;;;;;5065801;27;87219;-57
2021/12/29 11:44:18;;;;;;;;;;;7.20;84.40;;;;;;5065485;27;89040;-54
2021/12/29 11:46:44;;;;;;;;;;;7.20;84.20;;;;;;5065209;27;89538;-53
2021/12/29 11:49:09;;;;;;;;;;;7.20;84.50;;;;;;5065902;27;87172;-54
2021/12/29 11:51:47;;;;;;;;;;;7.20;84.60;;;;;;5065341;27;88796;-56
2021/12/29 11:54:21;;;;;;;;;;;7.20;84.50;;;;;;5065280;27;89624;-55
2021/12/29 11:56:47;;;;;;;;;;;7.20;84.30;;;;;;5065903;27;86222;-57
2021/12/29 11:59:13;;;;;;;;;;;7.20;84.40;;;;;;5068273;27;88090;-56
2021/12/29 12:01:39;;;;;;;;;;;7.20;84.50;;;;;;5065501;27;87168;-53
2021/12/29 12:04:06;;;;;;;;;;;7.20;84.60;;;;;;5064858;27;89739;-54
2021/12/29 12:06:34;;;;;;;;;;;7.20;84.60;;;;;;5065112;27;89439;-55
2021/12/29 12:09:01;;;;;;;;;;;7.20;84.60;;;;;;5065256;27;87108;-57
2021/12/29 12:11:27;;;;;;;;;;;7.20;84.80;;;;;;5065083;27;88734;-57
2021/12/29 12:13:53;;;;;;;;;;;7.20;84.70;;;;;;5046568;27;91357;-58
2021/12/29 12:16:19;;;;;;;;;;;7.20;84.70;;;;;;5065386;27;87070;-56
2021/12/29 12:18:45;;;;;;;;;;;7.20;84.60;;;;;;5065173;27;88902;-57
2021/12/29 12:21:23;;;;;;;;;;;7.30;84.60;;;;;;5068164;27;88986;-52
2021/12/29 12:23:49;;;;;;;;;;;7.30;84.50;;;;;;5065026;27;88458;-53
2021/12/29 12:26:18;;;;;;;;;;;7.30;84.60;;;;;;5064782;27;89726;-59
2021/12/29 12:28:44;;;;;;;;;;;7.30;84.60;;;;;;5064642;27;88057;-57
2021/12/29 12:31:20;;;;;;;;;;;7.30;84.50;;;;;;5065003;27;89769;-54
2021/12/29 12:33:45;;;;;;;;;;;7.30;84.50;;;;;;5064793;27;88957;-59
2021/12/29 12:36:11;;;;;;;;;;;7.30;84.40;;;;;;5065275;27;86968;-57
2021/12/29 12:38:37;;;;;;;;;;;7.30;84.60;;;;;;5064672;27;89090;-58
2021/12/29 12:41:02;;;;;;;;;;;7.30;84.70;;;;;;5064523;27;88754;-59
2021/12/29 12:43:28;;;;;;;;;;;7.20;84.50;;;;;;5067592;27;87131;-57
2021/12/29 12:45:54;;;;;;;;;;;7.20;84.50;;;;;;5046613;27;90361;-55
2021/12/29 12:48:19;;;;;;;;;;;7.30;84.40;;;;;;5064668;27;86765;-54
2021/12/29 12:50:45;;;;;;;;;;;7.20;84.30;;;;;;5064401;27;88198;-59
2021/12/29 12:53:13;;;;;;;;;;;7.30;84.40;;;;;;5063410;27;90118;-57
2021/12/29 12:55:53;;;;;;;;;;;7.30;84.30;;;;;;5064653;27;87198;-56
2021/12/29 12:58:19;;;;;;;;;;;7.20;84.30;;;;;;5064507;27;89111;-60
2021/12/29 13:00:55;;;;;;;;;;;7.20;84.30;;;;;;5064338;27;87915;-57
2021/12/29 13:03:22;;;;;;;;;;;7.30;84.30;;;;;;5064456;27;86999;-58
2021/12/29 13:05:51;;;;;;;;;;;7.30;84.30;;;;;;5066684;27;88770;-58
2021/12/29 13:08:22;;;;;;;;;;;7.20;84.30;;;;;;5064456;27;86949;-55
2021/12/29 13:10:48;;;;;;;;;;;7.20;84.30;;;;;;5064761;27;88958;-58
2021/12/29 13:13:20;;;;;;;;;;;7.20;84.30;;;;;;5063997;27;89571;-52
2021/12/29 13:15:48;;;;;;;;;;;7.30;84.40;;;;;;5064414;27;86924;-57
2021/12/29 13:18:15;;;;;;;;;;;7.20;84.20;;;;;;5063627;27;89120;-56
2021/12/29 13:20:41;;;;;;;;;;;7.20;84.40;;;;;;5063745;27;88698;-56
2021/12/29 13:23:19;;;;;;;;;;;7.20;84.30;;;;;;5064043;27;86891;-56
2021/12/29 13:25:46;;;;;;;;;;;7.20;84.20;;;;;;5064297;27;88721;-60
2021/12/29 13:28:13;;;;;;;;;;;7.20;84.40;;;;;;5066751;27;89521;-53
2021/12/29 13:30:49;;;;;;;;;;;7.20;84.20;;;;;;5063948;27;88835;-58
2021/12/29 13:33:16;;;;;;;;;;;7.20;84.50;;;;;;5064099;27;88108;-55
2021/12/29 13:35:43;;;;;;;;;;;7.20;84.40;;;;;;5064325;27;86363;-56
2021/12/29 13:38:10;;;;;;;;;;;7.20;84.60;;;;;;5064121;27;88164;-57
2021/12/29 13:40:43;;;;;;;;;;;7.20;84.80;;;;;;5063856;27;88376;-56
2021/12/29 13:43:12;;;;;;;;;;;7.20;84.60;;;;;;5063276;27;88049;-59
2021/12/29 13:45:39;;;;;;;;;;;7.20;84.90;;;;;;5063527;27;89793;-57
2021/12/29 13:48:04;;;;;;;;;;;7.20;84.90;;;;;;5063616;27;88762;-57
2021/12/29 13:50:30;;;;;;;;;;;7.20;84.90;;;;;;5066351;27;87102;-53
2021/12/29 13:52:59;;;;;;;;;;;7.20;85.20;;;;;;5063770;27;87202;-54
2021/12/29 13:55:26;;;;;;;;;;;7.20;85.10;;;;;;5063563;27;87053;-58
2021/12/29 13:57:55;;;;;;;;;;;7.20;85.20;;;;;;5063907;27;87110;-54
2021/12/29 14:00:20;;;;;;;;;;;7.20;85.30;;;;;;5063684;27;88873;-55
2021/12/29 14:02:46;;;;;;;;;;;7.20;85.30;;;;;;5063723;27;87163;-56
2021/12/29 14:05:13;;;;;;;;;;;7.20;85.40;;;;;;5063767;27;87221;-56
2021/12/29 14:07:39;;;;;;;;;;;7.20;85.50;;;;;;5062561;27;90335;-54
2021/12/29 14:10:04;;;;;;;;;;;7.20;85.40;;;;;;5066811;27;87072;-55
2021/12/29 14:12:33;;;;;;;;;;;7.20;85.50;;;;;;5063122;27;88882;-54
2021/12/29 14:15:01;;;;;;;;;;;7.20;85.60;;;;;;5063389;27;87106;-55
2021/12/29 14:17:26;;;;;;;;;;;7.20;85.50;;;;;;5063774;27;87451;-56
2021/12/29 14:19:52;;;;;;;;;;;7.20;85.60;;;;;;5063084;27;89254;-58
2021/12/29 14:22:25;;;;;;;;;;;7.20;85.60;;;;;;5063432;27;86802;-57
2021/12/29 14:24:51;;;;;;;;;;;7.20;85.60;;;;;;5045444;27;90654;-57
2021/12/29 14:27:22;;;;;;;;;;;7.20;85.60;;;;;;5062667;27;89304;-55
2021/12/29 14:29:47;;;;;;;;;;;7.20;85.50;;;;;;5063308;27;87084;-54
2021/12/29 14:32:13;;;;;;;;;;;7.20;85.80;;;;;;5065265;27;89439;-57